createdAt,value
2019-05-26T00:02:21.480Z,13.57
2019-05-26T00:04:50.102Z,12.87
2019-05-26T00:07:30.159Z,14.40
2019-05-26T00:09:49.041Z,14.57
2019-05-26T00:12:19.886Z,14.90
2019-05-26T00:14:48.490Z,11.27
2019-05-26T00:17:17.072Z,14.90
2019-05-26T00:19:45.696Z,12.53
2019-05-26T00:22:14.480Z,15.97
2019-05-26T00:24:43.114Z,13.87
2019-05-26T00:27:11.798Z,16.47
2019-05-26T00:29:40.488Z,17.10
2019-05-26T00:32:09.174Z,21.07
2019-05-26T00:34:37.865Z,13.77
2019-05-26T00:37:06.572Z,14.87
2019-05-26T00:39:35.154Z,18.30
2019-05-26T00:42:04.063Z,18.60
2019-05-26T00:44:32.718Z,14.87
2019-05-26T00:47:01.347Z,21.90
2019-05-26T00:49:30.118Z,19.80
2019-05-26T00:51:58.850Z,19.53
2019-05-26T00:54:27.638Z,13.17
2019-05-26T00:56:56.478Z,14.10
2019-05-26T00:59:25.086Z,14.03
2019-05-26T01:01:53.694Z,14.70
2019-05-26T01:04:22.389Z,15.00
2019-05-26T01:06:51.093Z,12.17
2019-05-26T01:09:21.294Z,15.87
2019-05-26T01:11:49.920Z,14.87
2019-05-26T01:14:18.520Z,14.40
2019-05-26T01:16:47.204Z,14.07
2019-05-26T01:19:15.860Z,13.83
2019-05-26T01:21:44.557Z,16.33
2019-05-26T01:24:13.215Z,30.00
2019-05-26T01:26:41.917Z,41.93
2019-05-26T01:29:10.579Z,33.33
2019-05-26T01:31:39.164Z,16.63
2019-05-26T01:34:07.810Z,16.40
2019-05-26T01:36:37.024Z,14.77
2019-05-26T01:39:07.643Z,13.97
2019-05-26T01:41:36.338Z,14.93
2019-05-26T01:44:05.394Z,15.87
2019-05-26T01:46:34.332Z,17.27
2019-05-26T01:49:02.890Z,17.50
2019-05-26T01:51:31.594Z,17.80
2019-05-26T01:54:00.360Z,18.10
2019-05-26T01:56:28.946Z,15.13
2019-05-26T01:58:57.641Z,15.07
2019-05-26T02:01:26.476Z,17.23
2019-05-26T02:03:55.168Z,22.07
2019-05-26T02:06:23.854Z,14.13
2019-05-26T02:08:52.548Z,23.23
2019-05-26T02:11:21.113Z,17.03
2019-05-26T02:13:50.036Z,16.17
2019-05-26T02:16:18.679Z,16.77
2019-05-26T02:18:47.410Z,18.00
2019-05-26T02:21:16.084Z,20.00
2019-05-26T02:23:44.886Z,18.23
2019-05-26T02:26:13.505Z,20.57
2019-05-26T02:28:42.263Z,17.00
2019-05-26T02:31:10.843Z,17.80
2019-05-26T02:33:39.727Z,21.27
2019-05-26T02:36:08.354Z,17.77
2019-05-26T02:38:36.955Z,23.07
2019-05-26T02:41:05.699Z,17.40
2019-05-26T02:43:34.461Z,20.20
2019-05-26T02:46:03.099Z,24.77
2019-05-26T02:48:31.888Z,17.17
2019-05-26T02:51:00.488Z,16.90
2019-05-26T02:53:29.120Z,18.93
2019-05-26T02:55:58.274Z,18.70
2019-05-26T02:58:27.077Z,20.03
2019-05-26T03:00:55.812Z,18.67
2019-05-26T03:03:24.737Z,16.30
2019-05-26T03:05:53.966Z,18.37
2019-05-26T03:08:23.358Z,20.30
2019-05-26T03:10:53.194Z,21.63
2019-05-26T03:13:21.856Z,19.60
2019-05-26T03:15:51.992Z,17.90
2019-05-26T03:18:20.580Z,20.13
2019-05-26T03:20:49.269Z,21.73
2019-05-26T03:23:18.042Z,17.60
2019-05-26T03:25:46.824Z,19.57
2019-05-26T03:28:15.464Z,19.17
2019-05-26T03:30:44.209Z,20.00
2019-05-26T03:33:12.798Z,24.33
2019-05-26T03:35:41.478Z,23.27
2019-05-26T03:38:10.278Z,17.43
2019-05-26T03:40:38.940Z,19.53
2019-05-26T03:43:07.731Z,17.50
2019-05-26T03:45:45.107Z,23.73
2019-05-26T03:48:13.780Z,17.73
2019-05-26T03:50:42.423Z,26.70
2019-05-26T03:53:11.124Z,20.00
2019-05-26T03:55:39.869Z,20.43
2019-05-26T03:58:08.454Z,14.93
2019-05-26T04:00:37.199Z,17.67
2019-05-26T04:03:05.859Z,19.63
2019-05-26T04:05:34.540Z,14.53
2019-05-26T04:08:04.673Z,19.47
2019-05-26T04:10:33.545Z,18.60
2019-05-26T04:13:02.163Z,18.00
2019-05-26T04:15:30.949Z,16.43
2019-05-26T04:17:59.808Z,14.00
2019-05-26T04:20:28.656Z,13.03
2019-05-26T04:22:57.425Z,16.15
2019-05-26T04:25:26.138Z,14.53
2019-05-26T04:27:54.934Z,12.00
2019-05-26T04:30:23.706Z,12.70
2019-05-26T04:32:52.373Z,14.18
2019-05-26T04:35:21.111Z,12.07
2019-05-26T04:37:49.954Z,17.07
2019-05-26T04:40:26.275Z,11.60
2019-05-26T04:42:48.913Z,16.23
2019-05-26T04:45:17.626Z,13.80
2019-05-26T04:47:46.276Z,12.18
2019-05-26T04:50:15.329Z,14.93
2019-05-26T04:53:02.071Z,10.63
2019-05-26T04:55:14.355Z,9.73
2019-05-26T04:57:43.145Z,10.75
2019-05-26T05:00:12.693Z,12.00
2019-05-26T05:02:41.623Z,11.25
2019-05-26T05:05:10.752Z,11.45
2019-05-26T05:07:39.379Z,12.33
2019-05-26T05:10:09.119Z,8.63
2019-05-26T05:12:38.470Z,10.10
2019-05-26T05:15:09.069Z,12.45
2019-05-26T05:17:37.771Z,7.95
2019-05-26T05:20:08.039Z,13.40
2019-05-26T05:22:36.766Z,12.23
2019-05-26T05:25:14.567Z,10.55
2019-05-26T05:27:39.848Z,10.78
2019-05-26T05:30:10.106Z,8.00
2019-05-26T05:32:38.858Z,11.22
2019-05-26T05:35:08.747Z,11.28
2019-05-26T05:37:37.466Z,9.68
2019-05-26T05:40:07.481Z,9.65
2019-05-26T05:42:36.199Z,10.03
2019-05-26T05:45:06.600Z,8.45
2019-05-26T05:47:35.179Z,9.88
2019-05-26T05:50:06.631Z,9.35
2019-05-26T05:52:35.447Z,7.70
2019-05-26T05:55:04.741Z,8.90
2019-05-26T05:58:14.413Z,6.83
2019-05-26T06:04:11.924Z,8.25
2019-05-26T06:06:39.808Z,10.80
2019-05-26T06:09:09.377Z,7.78
2019-05-26T06:11:38.018Z,11.68
2019-05-26T06:14:06.743Z,9.73
2019-05-26T06:16:35.441Z,10.27
2019-05-26T06:19:04.177Z,5.92
2019-05-26T06:21:32.866Z,6.15
2019-05-26T06:24:01.530Z,9.85
2019-05-26T06:26:30.171Z,7.80
2019-05-26T06:28:58.745Z,7.37
2019-05-26T06:31:27.484Z,7.78
2019-05-26T06:33:56.269Z,4.70
2019-05-26T06:36:24.855Z,5.35
2019-05-26T06:38:53.588Z,7.87
2019-05-26T06:41:32.819Z,6.00
2019-05-26T06:43:54.138Z,4.95
2019-05-26T06:46:22.863Z,8.18
2019-05-26T06:48:51.642Z,4.95
2019-05-26T06:51:20.249Z,5.65
2019-05-26T06:53:48.899Z,4.65
2019-05-26T06:56:17.479Z,6.53
2019-05-26T06:58:46.109Z,7.37
2019-05-26T07:01:14.798Z,6.87
2019-05-26T07:03:43.483Z,6.72
2019-05-26T07:06:12.315Z,4.85
2019-05-26T07:08:40.976Z,7.70
2019-05-26T07:11:09.675Z,5.90
2019-05-26T07:13:38.325Z,6.80
2019-05-26T07:16:08.472Z,9.30
2019-05-26T07:18:37.126Z,3.95
2019-05-26T07:21:05.773Z,8.83
2019-05-26T07:23:34.373Z,7.65
2019-05-26T07:26:02.979Z,10.15
2019-05-26T07:28:31.935Z,5.90
2019-05-26T07:31:00.556Z,12.18
2019-05-26T07:33:29.164Z,4.53
2019-05-26T07:35:59.332Z,5.05
2019-05-26T07:38:27.966Z,3.15
2019-05-26T07:40:56.596Z,5.58
2019-05-26T07:43:28.034Z,4.15
2019-05-26T07:45:55.813Z,8.88
2019-05-26T07:48:24.443Z,5.55
2019-05-26T07:50:53.015Z,5.20
2019-05-26T07:53:21.668Z,3.55
2019-05-26T07:55:50.333Z,5.05
2019-05-26T07:58:19.070Z,5.25
2019-05-26T08:00:47.701Z,6.62
2019-05-26T08:03:16.339Z,4.47
2019-05-26T08:05:45.011Z,3.55
2019-05-26T08:08:13.837Z,5.03
2019-05-26T08:10:42.659Z,3.77
2019-05-26T08:13:11.343Z,5.70
2019-05-26T08:15:40.409Z,6.45
2019-05-26T08:18:09.054Z,4.55
2019-05-26T08:20:42.131Z,4.35
2019-05-26T08:23:10.833Z,5.45
2019-05-26T08:25:42.548Z,5.15
2019-05-26T08:28:11.703Z,6.25
2019-05-26T08:30:40.301Z,4.37
2019-05-26T08:33:09.004Z,7.30
2019-05-26T08:35:37.638Z,5.05
2019-05-26T08:38:06.243Z,8.25
2019-05-26T08:40:34.867Z,7.60
2019-05-26T08:43:03.626Z,4.92
2019-05-26T08:45:32.277Z,5.50
2019-05-26T08:48:01.120Z,6.50
2019-05-26T08:50:29.864Z,6.08
2019-05-26T08:52:58.601Z,5.60
2019-05-26T08:55:27.285Z,4.35
2019-05-26T08:57:55.934Z,6.80
2019-05-26T09:00:25.896Z,5.70
2019-05-26T09:02:54.601Z,5.53
2019-05-26T09:05:26.061Z,6.35
2019-05-26T09:07:54.703Z,5.42
2019-05-26T09:10:23.474Z,6.50
2019-05-26T09:13:00.613Z,6.92
2019-05-26T09:15:22.529Z,4.15
2019-05-26T09:17:51.241Z,7.70
2019-05-26T09:20:20.095Z,8.25
2019-05-26T09:22:48.673Z,8.60
2019-05-26T09:25:17.503Z,4.92
2019-05-26T09:27:46.215Z,6.47
2019-05-26T09:30:16.766Z,11.80
2019-05-26T09:32:58.126Z,6.60
2019-05-26T09:35:25.899Z,4.78
2019-05-26T09:37:54.624Z,6.25
2019-05-26T09:40:23.510Z,5.50
2019-05-26T09:42:52.273Z,9.05
2019-05-26T09:45:21.547Z,6.55
2019-05-26T09:47:50.439Z,6.47
2019-05-26T09:50:19.764Z,3.85
2019-05-26T09:52:51.913Z,5.15
2019-05-26T09:55:20.936Z,5.10
2019-05-26T09:57:49.749Z,4.17
2019-05-26T10:00:20.258Z,5.25
2019-05-26T10:02:49.008Z,4.58
2019-05-26T10:05:17.722Z,3.90
2019-05-26T10:07:46.437Z,5.05
2019-05-26T10:10:15.247Z,3.60
2019-05-26T10:12:43.971Z,4.40
2019-05-26T10:15:13.813Z,5.05
2019-05-26T10:17:42.523Z,4.75
2019-05-26T10:20:11.800Z,5.72
2019-05-26T10:22:40.468Z,5.55
2019-05-26T10:25:09.338Z,4.10
2019-05-26T10:27:37.974Z,4.45
2019-05-26T10:30:09.388Z,5.60
2019-05-26T10:32:38.177Z,3.58
2019-05-26T10:35:08.014Z,4.67
2019-05-26T10:37:36.686Z,5.62
2019-05-26T10:40:06.385Z,6.10
2019-05-26T10:42:34.976Z,4.80
2019-05-26T10:45:08.297Z,5.05
2019-05-26T10:47:37.032Z,5.17
2019-05-26T10:50:10.578Z,4.60
2019-05-26T10:52:39.301Z,6.05
2019-05-26T10:55:08.948Z,4.70
2019-05-26T10:57:37.726Z,6.45
2019-05-26T11:00:10.740Z,6.60
2019-05-26T11:02:39.414Z,4.70
2019-05-26T11:05:09.671Z,3.12
2019-05-26T11:07:38.569Z,7.15
2019-05-26T11:10:08.171Z,3.52
2019-05-26T11:12:37.034Z,4.83
2019-05-26T11:15:08.358Z,6.70
2019-05-26T11:17:37.050Z,3.67
2019-05-26T11:20:08.779Z,3.80
2019-05-26T11:22:37.420Z,4.15
2019-05-26T11:25:07.890Z,6.58
2019-05-26T11:27:36.531Z,4.60
2019-05-26T11:30:10.782Z,6.78
2019-05-26T11:32:39.744Z,9.00
2019-05-26T11:35:09.088Z,6.45
2019-05-26T11:37:37.848Z,7.08
2019-05-26T11:40:07.827Z,5.72
2019-05-26T11:42:36.642Z,4.97
2019-05-26T11:45:09.906Z,5.58
2019-05-26T11:47:38.513Z,13.13
2019-05-26T11:50:07.644Z,8.60
2019-05-26T11:52:36.466Z,7.15
2019-05-26T11:55:08.754Z,6.17
2019-05-26T11:57:37.733Z,6.42
2019-05-26T12:00:08.428Z,7.33
2019-05-26T12:02:37.582Z,4.97
2019-05-26T12:05:07.344Z,9.90
2019-05-26T12:07:36.162Z,5.12
2019-05-26T12:10:08.394Z,4.60
2019-05-26T12:12:37.142Z,6.10
2019-05-26T12:15:10.119Z,8.65
2019-05-26T12:17:38.866Z,6.20
2019-05-26T12:20:07.858Z,7.95
2019-05-26T12:22:38.060Z,6.12
2019-05-26T12:25:08.207Z,6.00
2019-05-26T12:27:37.049Z,5.85
2019-05-26T12:30:10.898Z,7.08
2019-05-26T12:32:39.584Z,5.65
2019-05-26T12:35:09.841Z,6.15
2019-05-26T12:37:38.611Z,8.50
2019-05-26T12:40:08.688Z,4.30
2019-05-26T12:42:37.250Z,8.95
2019-05-26T12:45:08.221Z,7.15
2019-05-26T12:47:36.995Z,7.03
2019-05-26T12:50:08.998Z,5.53
2019-05-26T12:52:38.044Z,6.92
2019-05-26T12:55:09.676Z,6.47
2019-05-26T12:57:39.050Z,5.78
2019-05-26T13:00:09.604Z,7.10
2019-05-26T13:02:38.253Z,4.40
2019-05-26T13:05:08.247Z,5.58
2019-05-26T13:10:30.577Z,5.65
2019-05-26T13:12:59.308Z,6.47
2019-05-26T13:15:28.533Z,5.95
2019-05-26T13:17:57.312Z,9.00
2019-05-26T13:20:30.622Z,6.78
2019-05-26T13:22:59.468Z,6.12
2019-05-26T13:25:28.322Z,4.35
2019-05-26T13:27:57.106Z,6.53
2019-05-26T13:30:26.954Z,4.72
2019-05-26T13:32:56.188Z,8.98
2019-05-26T13:35:25.026Z,7.30
2019-05-26T13:37:53.808Z,9.18
2019-05-26T13:40:22.737Z,4.30
2019-05-26T13:42:51.908Z,12.85
2019-05-26T13:45:22.829Z,5.12
2019-05-26T13:47:51.404Z,8.73
2019-05-26T13:50:20.656Z,6.25
2019-05-26T13:52:49.427Z,7.87
2019-05-26T13:55:18.477Z,8.25
2019-05-26T13:57:49.631Z,6.85
2019-05-26T14:00:19.245Z,6.62
2019-05-26T14:02:48.677Z,6.65
2019-05-26T14:05:20.829Z,7.40
2019-05-26T14:07:49.631Z,9.13
2019-05-26T14:10:37.986Z,11.78
2019-05-26T14:13:07.520Z,4.62
2019-05-26T14:15:38.768Z,5.30
2019-05-26T14:18:07.345Z,4.50
2019-05-26T14:20:38.710Z,6.15
2019-05-26T14:23:08.538Z,6.25
2019-05-26T14:25:38.126Z,6.72
2019-05-26T14:28:07.985Z,6.53
2019-05-26T14:30:36.709Z,6.85
2019-05-26T14:33:05.607Z,5.58
2019-05-26T14:35:34.366Z,5.08
2019-05-26T14:38:03.166Z,6.40
2019-05-26T14:40:31.904Z,5.15
2019-05-26T14:43:00.675Z,4.53
2019-05-26T14:45:29.302Z,3.62
2019-05-26T14:47:58.302Z,5.62
2019-05-26T14:50:27.595Z,5.87
2019-05-26T14:52:56.408Z,8.58
2019-05-26T14:55:25.137Z,5.58
2019-05-26T14:57:53.849Z,5.20
2019-05-26T15:00:22.914Z,4.45
2019-05-26T15:02:51.551Z,4.65
2019-05-26T15:05:20.286Z,6.90
2019-05-26T15:07:48.980Z,3.77
2019-05-26T15:10:17.738Z,3.40
2019-05-26T15:12:46.387Z,7.10
2019-05-26T15:15:15.532Z,5.12
2019-05-26T15:17:44.192Z,4.05
2019-05-26T15:20:13.493Z,4.08
2019-05-26T15:22:42.408Z,4.95
2019-05-26T15:25:11.090Z,5.00
2019-05-26T15:27:39.944Z,4.97
2019-05-26T15:30:11.682Z,3.27
2019-05-26T15:32:40.428Z,7.78
2019-05-26T15:35:09.452Z,3.40
2019-05-26T15:37:38.334Z,4.58
2019-05-26T15:40:08.534Z,5.85
2019-05-26T15:42:37.220Z,2.98
2019-05-26T15:45:10.536Z,5.90
2019-05-26T15:47:40.661Z,5.20
2019-05-26T15:50:12.798Z,5.55
2019-05-26T15:52:40.181Z,3.42
2019-05-26T15:55:09.003Z,3.45
2019-05-26T15:57:37.909Z,4.87
2019-05-26T16:00:09.990Z,4.55
2019-05-26T16:02:42.495Z,4.50
2019-05-26T16:05:11.712Z,6.60
2019-05-26T16:07:40.436Z,6.40
2019-05-26T16:10:09.804Z,3.62
2019-05-26T16:12:38.462Z,3.15
2019-05-26T16:15:08.225Z,4.33
2019-05-26T16:17:38.890Z,3.50
2019-05-26T16:20:11.387Z,3.42
2019-05-26T16:22:40.010Z,4.15
2019-05-26T16:25:08.852Z,5.17
2019-05-26T16:27:37.573Z,3.77
2019-05-26T16:30:08.546Z,5.78
2019-05-26T16:32:37.271Z,3.22
2019-05-26T16:35:06.347Z,2.58
2019-05-26T16:37:35.140Z,3.98
2019-05-26T16:40:07.693Z,2.60
2019-05-26T16:42:36.285Z,3.92
2019-05-26T16:45:07.106Z,7.22
2019-05-26T16:48:09.385Z,3.58
2019-05-26T16:50:40.775Z,4.80
2019-05-26T16:53:09.371Z,3.02
2019-05-26T16:55:38.027Z,2.52
2019-05-26T16:58:07.080Z,2.75
2019-05-26T17:00:35.924Z,4.78
2019-05-26T17:03:05.205Z,2.27
2019-05-26T17:05:35.497Z,3.80
2019-05-26T17:08:04.193Z,9.65
2019-05-26T17:10:32.867Z,2.45
2019-05-26T17:13:01.561Z,4.17
2019-05-26T17:15:30.191Z,5.80
2019-05-26T17:17:58.932Z,2.27
2019-05-26T17:20:27.749Z,6.17
2019-05-26T17:22:56.401Z,3.75
2019-05-26T17:25:25.566Z,6.03
2019-05-26T17:27:54.171Z,3.72
2019-05-26T17:30:23.429Z,6.67
2019-05-26T17:32:52.072Z,4.35
2019-05-26T17:35:20.823Z,4.62
2019-05-26T17:37:49.463Z,4.05
2019-05-26T17:40:19.811Z,6.78
2019-05-26T17:42:48.560Z,8.53
2019-05-26T17:45:17.406Z,7.58
2019-05-26T17:47:46.127Z,7.47
2019-05-26T17:50:15.499Z,5.20
2019-05-26T17:52:44.231Z,6.08
2019-05-26T17:55:13.423Z,6.62
2019-05-26T17:57:42.142Z,4.67
2019-05-26T18:00:12.777Z,2.62
2019-05-26T18:02:41.584Z,3.27
2019-05-26T18:05:10.779Z,3.20
2019-05-26T18:07:39.421Z,6.55
2019-05-26T18:10:08.680Z,7.10
2019-05-26T18:12:37.325Z,4.40
2019-05-26T18:15:08.310Z,7.65
2019-05-26T18:17:46.254Z,4.90
2019-05-26T18:20:08.195Z,3.83
2019-05-26T18:22:37.152Z,4.03
2019-05-26T18:25:08.119Z,4.62
2019-05-26T18:27:36.855Z,5.90
2019-05-26T18:30:07.083Z,4.97
2019-05-26T18:32:35.856Z,5.95
2019-05-26T18:35:06.880Z,4.67
2019-05-26T18:37:35.609Z,4.15
2019-05-26T18:40:08.122Z,8.23
2019-05-26T18:42:36.927Z,5.12
2019-05-26T18:45:07.296Z,8.05
2019-05-26T18:47:36.354Z,8.55
2019-05-26T18:50:06.116Z,4.42
2019-05-26T18:52:34.968Z,6.90
2019-05-26T18:55:07.276Z,9.68
2019-05-26T18:57:35.884Z,6.03
2019-05-26T19:00:06.819Z,5.65
2019-05-26T19:02:35.590Z,5.20
2019-05-26T19:05:06.647Z,7.50
2019-05-26T19:07:35.409Z,5.15
2019-05-26T19:10:05.753Z,6.20
2019-05-26T19:12:34.493Z,8.93
2019-05-26T19:15:04.040Z,9.00
2019-05-26T19:17:32.711Z,10.23
2019-05-26T19:20:14.869Z,6.70
2019-05-26T19:22:32.252Z,7.47
2019-05-26T19:25:00.943Z,9.50
2019-05-26T19:27:29.736Z,7.67
2019-05-26T19:29:58.496Z,11.40
2019-05-26T19:32:27.509Z,10.00
2019-05-26T19:34:56.398Z,7.60
2019-05-26T19:37:26.071Z,11.10
2019-05-26T19:39:54.977Z,10.40
2019-05-26T19:42:23.612Z,6.08
2019-05-26T19:44:52.780Z,9.00
2019-05-26T19:47:21.515Z,8.97
2019-05-26T19:49:50.176Z,10.50
2019-05-26T19:52:19.081Z,9.68
2019-05-26T19:54:47.883Z,7.67
2019-05-26T19:57:16.583Z,11.40
2019-05-26T19:59:48.967Z,7.60
2019-05-26T20:02:20.422Z,8.55
2019-05-26T20:04:48.875Z,12.70
2019-05-26T20:07:17.738Z,9.53
2019-05-26T20:09:46.502Z,13.08
2019-05-26T20:12:15.322Z,8.90
2019-05-26T20:14:44.143Z,9.50
2019-05-26T20:17:12.945Z,10.08
2019-05-26T20:19:41.734Z,8.80
2019-05-26T20:22:10.908Z,9.43
2019-05-26T20:24:39.630Z,8.48
2019-05-26T20:27:08.717Z,8.48
2019-05-26T20:29:40.121Z,9.10
2019-05-26T20:32:08.920Z,9.37
2019-05-26T20:34:38.031Z,8.03
2019-05-26T20:37:06.883Z,13.48
2019-05-26T20:39:37.265Z,9.17
2019-05-26T20:42:06.473Z,10.30
2019-05-26T20:44:35.763Z,7.62
2019-05-26T20:47:04.635Z,10.18
2019-05-26T20:49:45.044Z,10.70
2019-05-26T20:52:04.624Z,9.35
2019-05-26T20:54:33.791Z,8.83
2019-05-26T20:57:02.592Z,11.13
2019-05-26T20:59:31.472Z,12.27
2019-05-26T21:02:00.508Z,16.40
2019-05-26T21:04:29.195Z,14.65
2019-05-26T21:06:58.056Z,12.17
2019-05-26T21:09:26.863Z,12.83
2019-05-26T21:11:55.732Z,9.13
2019-05-26T21:14:24.383Z,12.87
2019-05-26T21:16:53.237Z,9.47
2019-05-26T21:19:22.111Z,9.68
2019-05-26T21:21:50.944Z,10.30
2019-05-26T21:24:19.785Z,11.40
2019-05-26T21:26:48.592Z,9.33
2019-05-26T21:29:17.482Z,8.98
2019-05-26T21:31:46.267Z,14.80
2019-05-26T21:34:15.393Z,11.27
2019-05-26T21:36:44.449Z,12.77
2019-05-26T21:39:13.192Z,9.53
2019-05-26T21:41:41.956Z,9.77
2019-05-26T21:44:10.771Z,9.37
2019-05-26T21:46:39.507Z,12.37
2019-05-26T21:49:08.345Z,8.33
2019-05-26T21:51:37.102Z,12.93
2019-05-26T21:54:05.841Z,12.37
2019-05-26T21:56:34.690Z,12.07
2019-05-26T21:59:03.561Z,10.90
2019-05-26T22:01:32.591Z,10.23
2019-05-26T22:04:01.441Z,10.00
2019-05-26T22:06:30.342Z,12.23
2019-05-26T22:08:59.019Z,9.00
2019-05-26T22:11:27.711Z,9.80
2019-05-26T22:13:56.438Z,13.83
2019-05-26T22:16:25.107Z,10.23
2019-05-26T22:18:53.846Z,9.53
2019-05-26T22:21:24.318Z,10.83
2019-05-26T22:23:53.539Z,13.93
2019-05-26T22:26:22.556Z,9.40
2019-05-26T22:28:51.516Z,12.07
2019-05-26T22:31:20.409Z,12.40
2019-05-26T22:33:49.045Z,7.97
2019-05-26T22:36:17.854Z,10.00
2019-05-26T22:38:46.678Z,13.10
2019-05-26T22:41:15.325Z,11.10
2019-05-26T22:43:44.243Z,12.33
2019-05-26T22:46:13.245Z,12.43
2019-05-26T22:48:42.127Z,9.47
2019-05-26T22:51:11.053Z,9.93
2019-05-26T22:53:39.910Z,10.50
2019-05-26T22:56:08.813Z,13.30
2019-05-26T22:58:37.732Z,10.17
2019-05-26T23:01:06.926Z,10.80
2019-05-26T23:03:36.149Z,14.53
2019-05-26T23:06:05.154Z,10.37
2019-05-26T23:08:34.291Z,8.57
2019-05-26T23:11:03.247Z,9.97
2019-05-26T23:13:32.236Z,8.63
2019-05-26T23:16:01.229Z,14.97
2019-05-26T23:18:30.095Z,8.43
2019-05-26T23:20:59.158Z,15.10
2019-05-26T23:23:27.887Z,14.73
2019-05-26T23:25:56.928Z,11.37
2019-05-26T23:28:25.819Z,11.10
2019-05-26T23:30:54.706Z,14.13
2019-05-26T23:33:23.550Z,11.93
2019-05-26T23:35:52.241Z,11.13
2019-05-26T23:38:21.078Z,10.70
2019-05-26T23:40:49.769Z,10.80
2019-05-26T23:43:18.501Z,15.80
2019-05-26T23:45:47.237Z,9.83
2019-05-26T23:48:15.975Z,13.33
2019-05-26T23:50:44.766Z,12.97
2019-05-26T23:53:13.408Z,13.07
2019-05-26T23:55:42.051Z,14.57
2019-05-26T23:58:10.833Z,12.20
